createdAt,value
2022-10-23T00:01:17.081Z,2.20
2022-10-23T00:03:44.778Z,2.45
2022-10-23T00:06:13.260Z,2.33
2022-10-23T00:08:41.080Z,2.22
2022-10-23T00:11:20.225Z,2.22
2022-10-23T00:13:48.391Z,1.85
2022-10-23T00:16:16.227Z,2.00
2022-10-23T00:18:43.895Z,1.95
2022-10-23T00:21:12.472Z,2.03
2022-10-23T00:23:40.706Z,1.67
2022-10-23T00:26:11.021Z,1.80
2022-10-23T00:28:38.716Z,1.63
2022-10-23T00:31:06.194Z,1.30
2022-10-23T00:33:33.790Z,1.75
2022-10-23T00:36:00.754Z,1.73
2022-10-23T00:38:27.775Z,1.65
2022-10-23T00:40:54.809Z,1.30
2022-10-23T00:43:24.689Z,1.83
2022-10-23T00:45:52.008Z,1.58
2022-10-23T00:48:19.751Z,1.45
2022-10-23T00:50:48.360Z,1.10
2022-10-23T00:53:17.323Z,1.27
2022-10-23T00:55:47.049Z,1.30
2022-10-23T00:58:19.856Z,1.42
2022-10-23T01:00:52.739Z,1.73
2022-10-23T01:03:23.714Z,1.65
2022-10-23T01:06:10.236Z,1.80
2022-10-23T01:08:50.730Z,1.70
2022-10-23T01:11:24.957Z,1.67
2022-10-23T01:14:10.934Z,1.35
2022-10-23T01:16:56.374Z,2.40
2022-10-23T01:19:56.592Z,1.80
2022-10-23T01:22:48.240Z,1.73
2022-10-23T01:25:27.294Z,2.05
2022-10-23T01:28:02.791Z,1.77
2022-10-23T01:30:33.570Z,1.85
2022-10-23T01:33:28.135Z,2.10
2022-10-23T01:36:08.406Z,1.77
2022-10-23T01:38:50.231Z,1.90
2022-10-23T01:41:35.867Z,1.80
2022-10-23T01:44:16.088Z,1.60
2022-10-23T01:46:47.052Z,2.03
2022-10-23T01:49:15.350Z,2.08
2022-10-23T01:51:57.464Z,2.00
2022-10-23T01:54:29.735Z,1.45
2022-10-23T01:56:58.825Z,1.58
2022-10-23T02:02:04.657Z,1.48
2022-10-23T02:04:53.754Z,1.52
2022-10-23T02:07:21.166Z,1.92
2022-10-23T02:09:49.125Z,1.73
2022-10-23T02:12:33.692Z,1.42
2022-10-23T02:15:14.144Z,1.85
2022-10-23T02:17:51.851Z,1.98
2022-10-23T02:23:41.889Z,1.80
2022-10-23T02:26:38.072Z,1.73
2022-10-23T02:29:13.629Z,2.08
2022-10-23T02:31:44.123Z,1.65
2022-10-23T02:34:11.156Z,1.73
2022-10-23T02:36:39.199Z,2.00
2022-10-23T02:39:06.685Z,2.08
2022-10-23T02:41:43.400Z,1.75
2022-10-23T02:44:23.630Z,1.80
2022-10-23T02:47:19.120Z,1.90
2022-10-23T02:49:49.010Z,1.70
2022-10-23T02:52:34.979Z,1.40
2022-10-23T02:55:26.953Z,1.80
2022-10-23T02:58:14.359Z,1.90
2022-10-23T03:00:49.763Z,1.70
2022-10-23T03:03:23.677Z,1.73
2022-10-23T03:05:51.184Z,1.77
2022-10-23T03:08:18.177Z,1.70
2022-10-23T03:10:45.313Z,1.70
2022-10-23T03:13:12.985Z,2.25
2022-10-23T03:15:43.949Z,1.90
2022-10-23T03:18:15.089Z,1.63
2022-10-23T03:20:46.710Z,1.63
2022-10-23T03:23:15.121Z,2.00
2022-10-23T03:25:42.958Z,2.10
2022-10-23T03:28:11.107Z,1.50
2022-10-23T03:30:38.621Z,2.22
2022-10-23T03:33:05.803Z,2.22
2022-10-23T03:35:35.866Z,2.63
2022-10-23T03:38:05.372Z,2.30
2022-10-23T03:40:33.298Z,2.22
2022-10-23T03:43:00.628Z,2.38
2022-10-23T03:45:30.949Z,2.20
2022-10-23T03:47:58.194Z,2.15
2022-10-23T03:50:25.236Z,1.90
2022-10-23T03:52:54.243Z,2.35
2022-10-23T03:55:21.153Z,2.30
2022-10-23T03:57:48.151Z,2.60
2022-10-23T04:00:17.214Z,2.42
2022-10-23T04:02:44.581Z,2.38
2022-10-23T04:05:12.510Z,2.13
2022-10-23T04:07:43.737Z,2.20
2022-10-23T04:10:11.035Z,3.13
2022-10-23T04:12:40.116Z,2.25
2022-10-23T04:15:07.489Z,2.30
2022-10-23T04:17:34.631Z,2.45
2022-10-23T04:20:01.782Z,2.72
2022-10-23T04:22:29.150Z,2.28
2022-10-23T04:24:56.458Z,2.45
2022-10-23T04:27:23.793Z,2.80
2022-10-23T04:29:53.254Z,2.20
2022-10-23T04:32:22.674Z,2.38
2022-10-23T04:34:49.989Z,2.60
2022-10-23T04:37:17.162Z,2.28
2022-10-23T04:39:45.018Z,2.42
2022-10-23T04:42:14.435Z,2.35
2022-10-23T04:44:41.609Z,2.63
2022-10-23T04:47:08.921Z,2.63
2022-10-23T04:49:45.338Z,2.30
2022-10-23T04:52:35.854Z,2.50
2022-10-23T04:55:26.054Z,2.47
2022-10-23T05:00:35.455Z,2.38
2022-10-23T05:03:02.794Z,2.03
2022-10-23T05:05:36.101Z,1.90
2022-10-23T05:08:22.968Z,2.38
2022-10-23T05:11:08.809Z,2.03
2022-10-23T05:13:41.335Z,1.63
2022-10-23T05:16:09.312Z,1.40
2022-10-23T05:18:43.701Z,1.55
2022-10-23T05:21:19.813Z,1.55
2022-10-23T05:23:50.577Z,1.42
2022-10-23T05:26:18.265Z,1.60
2022-10-23T05:28:47.850Z,1.42
2022-10-23T05:31:20.884Z,1.45
2022-10-23T05:33:52.584Z,1.38
2022-10-23T05:36:22.599Z,1.50
2022-10-23T05:38:55.540Z,1.10
2022-10-23T05:41:22.632Z,1.30
2022-10-23T05:43:49.953Z,1.65
2022-10-23T05:46:39.763Z,1.63
2022-10-23T05:49:38.850Z,1.52
2022-10-23T05:52:35.050Z,1.27
2022-10-23T05:55:22.066Z,0.98
2022-10-23T05:57:56.806Z,1.13
2022-10-23T06:00:43.239Z,1.15
2022-10-23T06:03:30.188Z,0.98
2022-10-23T06:05:57.422Z,1.60
2022-10-23T06:08:34.457Z,1.25
2022-10-23T06:11:09.084Z,1.30
2022-10-23T06:13:37.149Z,1.20
2022-10-23T06:16:19.201Z,0.95
2022-10-23T06:18:47.358Z,1.27
2022-10-23T06:21:17.080Z,1.10
2022-10-23T06:23:46.804Z,1.40
2022-10-23T06:26:40.461Z,1.20
2022-10-23T06:29:10.762Z,1.33
2022-10-23T06:31:39.857Z,1.00
2022-10-23T06:34:07.080Z,1.27
2022-10-23T06:36:34.207Z,1.13
2022-10-23T06:39:22.229Z,1.00
2022-10-23T06:42:08.502Z,1.10
2022-10-23T06:44:50.361Z,1.45
2022-10-23T06:47:28.997Z,1.13
2022-10-23T06:50:16.545Z,1.35
2022-10-23T06:52:47.314Z,1.17
2022-10-23T06:55:18.137Z,1.23
2022-10-23T06:57:46.889Z,1.27
2022-10-23T07:00:14.880Z,1.75
2022-10-23T07:03:00.338Z,1.50
2022-10-23T07:05:27.812Z,1.48
2022-10-23T07:07:54.699Z,1.60
2022-10-23T07:10:26.930Z,1.48
2022-10-23T07:13:01.076Z,1.40
2022-10-23T07:15:40.760Z,1.30
2022-10-23T07:18:14.706Z,1.20
2022-10-23T07:21:05.092Z,1.40
2022-10-23T07:23:32.886Z,1.02
2022-10-23T07:26:15.306Z,1.30
2022-10-23T07:28:44.450Z,1.20
2022-10-23T07:31:13.441Z,1.35
2022-10-23T07:34:11.347Z,1.15
2022-10-23T07:36:40.050Z,1.13
2022-10-23T07:39:07.416Z,1.42
2022-10-23T07:41:40.518Z,1.20
2022-10-23T07:44:08.498Z,1.63
2022-10-23T07:46:35.423Z,1.73
2022-10-23T07:49:02.597Z,1.35
2022-10-23T07:51:29.765Z,1.33
2022-10-23T07:54:00.214Z,1.20
2022-10-23T07:56:50.531Z,0.90
2022-10-23T07:59:46.690Z,1.10
2022-10-23T08:02:18.877Z,1.33
2022-10-23T08:04:50.066Z,1.55
2022-10-23T08:10:18.556Z,1.33
2022-10-23T08:12:46.078Z,1.35
2022-10-23T08:15:14.002Z,1.45
2022-10-23T08:17:54.767Z,1.55
2022-10-23T08:20:42.152Z,1.23
2022-10-23T08:23:12.273Z,1.08
2022-10-23T08:25:48.846Z,1.30
2022-10-23T08:33:33.693Z,1.08
2022-10-23T08:36:00.563Z,1.00
2022-10-23T08:38:33.892Z,1.60
2022-10-23T08:41:02.742Z,1.45
2022-10-23T08:43:48.125Z,1.42
2022-10-23T08:46:35.980Z,1.00
2022-10-23T08:49:45.188Z,1.35
2022-10-23T08:52:20.481Z,1.20
2022-10-23T08:54:57.292Z,1.52
2022-10-23T08:57:26.738Z,1.77
2022-10-23T09:00:00.403Z,1.60
2022-10-23T09:02:32.765Z,1.50
2022-10-23T09:05:00.003Z,1.73
2022-10-23T09:07:38.890Z,1.25
2022-10-23T09:10:46.017Z,1.20
2022-10-23T09:13:30.053Z,2.08
2022-10-23T09:16:28.817Z,2.05
2022-10-23T09:18:57.295Z,1.70
2022-10-23T09:21:30.155Z,2.08
2022-10-23T09:23:57.239Z,1.23
2022-10-23T09:26:24.409Z,1.20
2022-10-23T09:28:57.824Z,1.50
2022-10-23T09:31:25.076Z,1.85
2022-10-23T09:34:02.082Z,1.40
2022-10-23T09:36:29.820Z,1.92
2022-10-23T09:38:59.029Z,2.55
2022-10-23T09:41:37.653Z,1.80
2022-10-23T09:44:31.209Z,1.73
2022-10-23T09:47:20.837Z,1.83
2022-10-23T09:49:53.921Z,1.40
2022-10-23T09:52:25.697Z,1.52
2022-10-23T09:54:59.232Z,2.67
2022-10-23T09:57:39.906Z,2.10
2022-10-23T10:00:27.759Z,1.67
2022-10-23T10:03:06.539Z,1.67
2022-10-23T10:05:41.973Z,1.83
2022-10-23T10:08:50.162Z,1.70
2022-10-23T10:11:30.763Z,1.52
2022-10-23T10:14:27.007Z,1.85
2022-10-23T10:16:58.694Z,1.88
2022-10-23T10:19:31.329Z,1.73
2022-10-23T10:22:22.757Z,1.52
2022-10-23T10:24:50.104Z,1.75
2022-10-23T10:27:45.094Z,1.60
2022-10-23T10:30:19.664Z,2.05
2022-10-23T10:33:02.136Z,1.90
2022-10-23T10:35:43.576Z,1.58
2022-10-23T10:38:19.503Z,1.55
2022-10-23T10:40:58.460Z,1.52
2022-10-23T10:43:37.004Z,1.88
2022-10-23T10:46:23.616Z,1.48
2022-10-23T10:49:06.073Z,1.80
2022-10-23T10:52:02.241Z,1.92
2022-10-23T10:54:57.872Z,1.88
2022-10-23T10:57:30.261Z,1.65
2022-10-23T11:00:02.743Z,2.13
2022-10-23T11:02:38.514Z,1.90
2022-10-23T11:05:26.101Z,1.75
2022-10-23T11:08:01.500Z,1.90
2022-10-23T11:10:29.957Z,1.80
2022-10-23T11:12:57.624Z,1.33
2022-10-23T11:18:28.635Z,2.10
2022-10-23T11:21:09.185Z,1.75
2022-10-23T11:24:16.557Z,1.63
2022-10-23T11:27:06.388Z,1.90
2022-10-23T11:29:41.226Z,1.52
2022-10-23T11:35:17.735Z,1.67
2022-10-23T11:37:45.205Z,1.88
2022-10-23T11:40:23.856Z,1.98
2022-10-23T11:42:51.772Z,2.08
2022-10-23T11:45:34.082Z,2.03
2022-10-23T11:48:22.097Z,1.75
2022-10-23T11:50:50.302Z,1.77
2022-10-23T11:53:38.515Z,1.40
2022-10-23T11:56:25.146Z,2.47
2022-10-23T11:58:55.399Z,1.83
2022-10-23T12:01:28.775Z,1.90
2022-10-23T12:04:00.728Z,1.58
2022-10-23T12:06:54.218Z,2.08
2022-10-23T12:09:52.065Z,1.73
2022-10-23T12:12:41.036Z,2.10
2022-10-23T12:15:11.508Z,2.00
2022-10-23T12:17:40.205Z,1.83
2022-10-23T12:20:13.339Z,1.70
2022-10-23T12:22:50.725Z,1.60
2022-10-23T12:25:41.911Z,1.67
2022-10-23T12:28:32.047Z,1.70
2022-10-23T12:31:23.835Z,1.38
2022-10-23T12:34:01.201Z,2.30
2022-10-23T12:36:51.917Z,1.80
2022-10-23T12:39:32.933Z,1.55
2022-10-23T12:42:00.997Z,1.65
2022-10-23T12:44:29.232Z,1.70
2022-10-23T12:46:59.537Z,2.22
2022-10-23T12:49:31.547Z,2.50
2022-10-23T12:52:04.967Z,1.75
2022-10-23T12:54:38.516Z,1.70
2022-10-23T12:57:29.127Z,1.67
2022-10-23T12:59:59.425Z,1.45
2022-10-23T13:02:31.356Z,1.85
2022-10-23T13:05:02.190Z,1.65
2022-10-23T13:07:33.952Z,1.80
2022-10-23T13:10:05.054Z,1.50
2022-10-23T13:12:38.644Z,2.03
2022-10-23T13:15:08.262Z,1.52
2022-10-23T13:17:38.491Z,1.63
2022-10-23T13:20:20.198Z,1.80
2022-10-23T13:23:10.503Z,1.95
2022-10-23T13:25:39.543Z,1.85
2022-10-23T13:28:12.049Z,1.58
2022-10-23T13:30:48.323Z,1.92
2022-10-23T13:33:31.651Z,1.67
2022-10-23T13:36:02.894Z,1.63
2022-10-23T13:38:38.293Z,1.45
2022-10-23T13:41:13.424Z,1.70
2022-10-23T13:43:41.503Z,1.95
2022-10-23T13:46:15.172Z,1.67
2022-10-23T13:48:42.418Z,1.63
2022-10-23T13:51:15.069Z,1.95
2022-10-23T13:53:42.338Z,1.98
2022-10-23T13:56:12.449Z,1.92
2022-10-23T13:58:40.174Z,1.73
2022-10-23T14:01:16.425Z,2.10
2022-10-23T14:03:43.938Z,2.22
2022-10-23T14:06:10.866Z,1.63
2022-10-23T14:08:37.931Z,1.60
2022-10-23T14:11:04.985Z,1.80
2022-10-23T14:13:32.031Z,1.88
2022-10-23T14:15:59.015Z,1.92
2022-10-23T14:18:26.197Z,1.73
2022-10-23T14:20:53.364Z,1.48
2022-10-23T14:23:20.669Z,2.03
2022-10-23T14:25:48.077Z,1.30
2022-10-23T14:28:15.346Z,1.33
2022-10-23T14:30:42.607Z,1.88
2022-10-23T14:33:09.723Z,1.80
2022-10-23T14:35:41.465Z,2.17
2022-10-23T14:38:08.455Z,2.00
2022-10-23T14:40:38.850Z,1.92
2022-10-23T14:43:06.550Z,1.85
2022-10-23T14:45:33.858Z,1.63
2022-10-23T14:48:02.597Z,2.00
2022-10-23T14:50:32.428Z,1.88
2022-10-23T14:55:26.816Z,1.88
2022-10-23T14:57:57.377Z,2.67
2022-10-23T15:00:24.390Z,2.30
2022-10-23T15:02:51.230Z,1.98
2022-10-23T15:05:18.528Z,2.15
2022-10-23T15:07:45.747Z,2.10
2022-10-23T15:10:13.050Z,2.45
2022-10-23T15:12:40.492Z,2.30
2022-10-23T15:15:08.887Z,2.47
2022-10-23T15:17:38.393Z,2.55
2022-10-23T15:20:06.339Z,2.47
2022-10-23T15:22:33.565Z,2.70
2022-10-23T15:25:01.010Z,2.40
2022-10-23T15:27:28.840Z,2.28
2022-10-23T15:29:56.090Z,2.88
2022-10-23T15:32:23.653Z,2.45
2022-10-23T15:34:52.150Z,2.33
2022-10-23T15:37:19.189Z,2.63
2022-10-23T15:39:46.862Z,2.20
2022-10-23T15:42:14.158Z,2.97
2022-10-23T15:44:41.609Z,2.67
2022-10-23T15:47:08.619Z,2.38
2022-10-23T15:49:37.026Z,2.50
2022-10-23T15:52:04.891Z,2.42
2022-10-23T15:54:33.133Z,2.20
2022-10-23T15:57:00.938Z,1.98
2022-10-23T15:59:29.708Z,1.88
2022-10-23T16:01:57.051Z,2.25
2022-10-23T16:04:24.805Z,2.40
2022-10-23T16:06:51.618Z,2.17
2022-10-23T16:09:18.725Z,2.33
2022-10-23T16:11:45.636Z,1.90
2022-10-23T16:14:15.974Z,2.20
2022-10-23T16:16:43.469Z,2.25
2022-10-23T16:19:11.611Z,2.00
2022-10-23T16:21:39.033Z,1.88
2022-10-23T16:24:08.077Z,1.80
2022-10-23T16:26:36.282Z,2.00
2022-10-23T16:29:05.947Z,1.90
2022-10-23T16:31:33.541Z,1.67
2022-10-23T16:34:01.996Z,1.67
2022-10-23T16:36:29.493Z,1.50
2022-10-23T16:39:13.733Z,1.70
2022-10-23T16:41:59.268Z,1.88
2022-10-23T16:44:35.441Z,1.25
2022-10-23T16:47:05.092Z,1.63
2022-10-23T16:49:32.289Z,1.40
2022-10-23T16:51:59.450Z,1.60
2022-10-23T16:54:26.637Z,1.30
2022-10-23T16:56:53.991Z,1.88
2022-10-23T16:59:21.145Z,1.67
2022-10-23T17:01:49.163Z,1.50
2022-10-23T17:04:16.374Z,1.42
2022-10-23T17:06:43.482Z,1.20
2022-10-23T17:09:11.020Z,1.08
2022-10-23T17:11:39.525Z,1.98
2022-10-23T17:14:11.363Z,1.48
2022-10-23T17:16:45.339Z,1.80
2022-10-23T17:19:20.787Z,1.33
2022-10-23T17:22:00.511Z,1.50
2022-10-23T17:24:27.807Z,1.38
2022-10-23T17:26:55.016Z,1.55
2022-10-23T17:29:22.711Z,1.48
2022-10-23T17:31:51.772Z,1.42
2022-10-23T17:34:21.379Z,1.38
2022-10-23T17:36:51.694Z,1.77
2022-10-23T17:39:22.534Z,1.45
2022-10-23T17:41:50.031Z,2.10
2022-10-23T17:44:17.176Z,1.35
2022-10-23T17:46:44.516Z,1.60
2022-10-23T17:49:12.193Z,1.50
2022-10-23T17:51:39.380Z,1.45
2022-10-23T17:54:09.091Z,1.50
2022-10-23T17:56:38.666Z,1.65
2022-10-23T17:59:10.309Z,2.13
2022-10-23T18:01:38.535Z,1.52
2022-10-23T18:04:08.292Z,1.63
2022-10-23T18:06:41.005Z,1.55
2022-10-23T18:09:08.070Z,1.67
2022-10-23T18:11:46.887Z,1.90
2022-10-23T18:14:16.215Z,1.45
2022-10-23T18:16:45.628Z,1.33
2022-10-23T18:19:13.807Z,1.77
2022-10-23T18:21:40.902Z,1.63
2022-10-23T18:24:08.601Z,1.60
2022-10-23T18:26:37.634Z,1.85
2022-10-23T18:29:07.950Z,1.50
2022-10-23T18:31:37.105Z,2.05
2022-10-23T18:34:24.474Z,1.70
2022-10-23T18:36:53.689Z,1.70
2022-10-23T18:39:24.368Z,1.67
2022-10-23T18:41:54.902Z,1.70
2022-10-23T18:44:23.698Z,1.48
2022-10-23T18:46:51.948Z,1.85
2022-10-23T18:49:20.024Z,2.03
2022-10-23T18:51:47.125Z,1.50
2022-10-23T18:54:16.116Z,1.95
2022-10-23T18:56:44.092Z,1.52
2022-10-23T18:59:17.674Z,1.80
2022-10-23T19:01:45.542Z,1.50
2022-10-23T19:04:15.986Z,1.45
2022-10-23T19:06:43.747Z,1.88
2022-10-23T19:09:13.820Z,1.67
2022-10-23T19:11:41.819Z,2.15
2022-10-23T19:14:08.865Z,1.92
2022-10-23T19:16:39.676Z,2.53
2022-10-23T19:19:25.609Z,1.80
2022-10-23T19:21:53.929Z,3.10
2022-10-23T19:24:29.784Z,1.95
2022-10-23T19:26:58.366Z,2.70
2022-10-23T19:29:26.684Z,2.08
2022-10-23T19:31:54.106Z,1.75
2022-10-23T19:34:24.718Z,2.33
2022-10-23T19:36:54.693Z,2.50
2022-10-23T19:39:22.813Z,2.03
2022-10-23T19:41:51.682Z,1.67
2022-10-23T19:44:19.809Z,1.63
2022-10-23T19:46:48.301Z,1.88
2022-10-23T19:49:15.704Z,1.80
2022-10-23T19:51:50.902Z,1.92
2022-10-23T19:54:19.096Z,1.83
2022-10-23T19:56:46.076Z,1.75
2022-10-23T19:59:13.242Z,1.40
2022-10-23T20:01:43.802Z,1.60
2022-10-23T20:04:13.683Z,1.40
2022-10-23T20:06:40.919Z,1.55
2022-10-23T20:09:09.995Z,1.55
2022-10-23T20:11:39.115Z,2.45
2022-10-23T20:14:06.669Z,1.73
2022-10-23T20:16:36.673Z,1.38
2022-10-23T20:19:06.993Z,2.13
2022-10-23T20:21:38.408Z,1.80
2022-10-23T20:24:06.474Z,1.90
2022-10-23T20:26:33.625Z,1.98
2022-10-23T20:29:00.505Z,1.92
2022-10-23T20:31:28.440Z,2.05
2022-10-23T20:33:56.759Z,1.90
2022-10-23T20:36:35.063Z,1.83
2022-10-23T20:39:06.867Z,2.05
2022-10-23T20:41:36.879Z,2.08
2022-10-23T20:44:10.777Z,1.90
2022-10-23T20:46:38.344Z,2.72
2022-10-23T20:49:06.118Z,2.03
2022-10-23T20:51:33.688Z,2.10
2022-10-23T20:54:00.701Z,2.08
2022-10-23T20:56:32.750Z,2.20
2022-10-23T20:59:05.211Z,2.17
2022-10-23T21:01:33.541Z,2.03
2022-10-23T21:04:03.035Z,2.03
2022-10-23T21:06:45.648Z,2.00
2022-10-23T21:09:19.025Z,2.00
2022-10-23T21:11:46.053Z,2.28
2022-10-23T21:14:13.653Z,1.83
2022-10-23T21:16:44.486Z,2.70
2022-10-23T21:19:16.103Z,2.10
2022-10-23T21:21:44.410Z,2.08
2022-10-23T21:24:15.196Z,1.70
2022-10-23T21:26:42.380Z,1.77
2022-10-23T21:29:19.151Z,2.85
2022-10-23T21:31:55.594Z,1.73
2022-10-23T21:34:24.256Z,3.25
2022-10-23T21:39:39.611Z,2.00
2022-10-23T21:42:07.227Z,2.20
2022-10-23T21:44:34.653Z,1.92
2022-10-23T21:47:02.401Z,1.73
2022-10-23T21:49:29.418Z,2.28
2022-10-23T21:51:56.401Z,2.03
2022-10-23T21:54:23.808Z,1.63
2022-10-23T21:56:53.836Z,1.65
2022-10-23T21:59:24.515Z,2.20
2022-10-23T22:01:52.581Z,1.98
2022-10-23T22:04:20.388Z,1.90
2022-10-23T22:06:48.892Z,1.73
2022-10-23T22:09:19.416Z,1.40
2022-10-23T22:11:48.610Z,1.55
2022-10-23T22:14:15.649Z,1.58
2022-10-23T22:16:42.795Z,1.55
2022-10-23T22:19:14.099Z,1.92
2022-10-23T22:21:42.037Z,1.53
2022-10-23T22:24:09.969Z,1.35
2022-10-23T22:26:46.646Z,1.50
2022-10-23T22:29:16.633Z,1.70
2022-10-23T22:31:47.201Z,1.65
2022-10-23T22:34:47.726Z,1.38
2022-10-23T22:37:11.491Z,1.88
2022-10-23T22:39:39.434Z,1.67
2022-10-23T22:42:06.510Z,1.45
2022-10-23T22:44:33.715Z,1.48
2022-10-23T22:47:00.702Z,1.45
2022-10-23T22:49:27.758Z,1.40
2022-10-23T22:51:54.770Z,1.73
2022-10-23T22:54:21.782Z,1.10
2022-10-23T22:56:48.792Z,1.25
2022-10-23T22:59:15.740Z,1.70
2022-10-23T23:01:45.925Z,1.77
2022-10-23T23:04:37.835Z,1.55
2022-10-23T23:07:06.584Z,1.90
2022-10-23T23:09:40.183Z,1.23
2022-10-23T23:12:09.949Z,1.45
2022-10-23T23:14:37.474Z,1.67
2022-10-23T23:17:05.338Z,1.60
2022-10-23T23:19:32.811Z,1.40
2022-10-23T23:22:00.375Z,1.75
2022-10-23T23:24:27.863Z,1.63
2022-10-23T23:26:54.942Z,1.77
2022-10-23T23:29:22.170Z,1.80
2022-10-23T23:31:49.278Z,1.50
2022-10-23T23:34:16.860Z,1.67
2022-10-23T23:36:44.038Z,1.48
2022-10-23T23:39:11.988Z,2.15
2022-10-23T23:41:39.176Z,2.05
2022-10-23T23:44:06.698Z,1.85
2022-10-23T23:46:33.748Z,2.08
2022-10-23T23:49:01.222Z,1.83
2022-10-23T23:51:28.237Z,2.22
2022-10-23T23:53:55.352Z,2.47
2022-10-23T23:56:22.447Z,2.35
2022-10-23T23:58:50.043Z,2.00
